sensor_id;sensor_type;location;lat;lon;timestamp;P1;durP1;ratioP1;P2;durP2;ratioP2
71383;SDS011;61466;52.166;5.004;2022-12-16T00:03:39;14.43;;;7.43;;
71383;SDS011;61466;52.166;5.004;2022-12-16T00:06:06;12.52;;;7.97;;
71383;SDS011;61466;52.166;5.004;2022-12-16T00:08:33;7.53;;;5.00;;
71383;SDS011;61466;52.166;5.004;2022-12-16T00:11:02;11.02;;;5.82;;
71383;SDS011;61466;52.166;5.004;2022-12-16T00:13:29;10.48;;;6.28;;
71383;SDS011;61466;52.166;5.004;2022-12-16T00:15:55;10.45;;;5.57;;
71383;SDS011;61466;52.166;5.004;2022-12-16T00:18:21;10.23;;;5.68;;
71383;SDS011;61466;52.166;5.004;2022-12-16T00:20:47;11.80;;;5.50;;
71383;SDS011;61466;52.166;5.004;2022-12-16T00:23:14;6.85;;;3.60;;
71383;SDS011;61466;52.166;5.004;2022-12-16T00:25:43;7.05;;;5.05;;
71383;SDS011;61466;52.166;5.004;2022-12-16T00:28:10;9.50;;;4.88;;
71383;SDS011;61466;52.166;5.004;2022-12-16T00:30:36;9.40;;;5.10;;
71383;SDS011;61466;52.166;5.004;2022-12-16T00:33:02;9.05;;;4.90;;
71383;SDS011;61466;52.166;5.004;2022-12-16T00:35:28;7.88;;;3.75;;
71383;SDS011;61466;52.166;5.004;2022-12-16T00:37:54;8.52;;;3.92;;
71383;SDS011;61466;52.166;5.004;2022-12-16T00:40:20;10.10;;;3.63;;
71383;SDS011;61466;52.166;5.004;2022-12-16T00:42:45;8.57;;;4.07;;
71383;SDS011;61466;52.166;5.004;2022-12-16T00:45:10;8.35;;;4.57;;
71383;SDS011;61466;52.166;5.004;2022-12-16T00:47:35;10.05;;;3.83;;
71383;SDS011;61466;52.166;5.004;2022-12-16T00:50:01;6.55;;;2.78;;
71383;SDS011;61466;52.166;5.004;2022-12-16T00:52:26;6.38;;;3.58;;
71383;SDS011;61466;52.166;5.004;2022-12-16T00:54:51;10.35;;;3.45;;
71383;SDS011;61466;52.166;5.004;2022-12-16T00:57:17;4.20;;;2.30;;
71383;SDS011;61466;52.166;5.004;2022-12-16T00:59:42;7.60;;;3.15;;
71383;SDS011;61466;52.166;5.004;2022-12-16T01:02:07;12.23;;;3.22;;
71383;SDS011;61466;52.166;5.004;2022-12-16T01:04:34;7.18;;;2.97;;
71383;SDS011;61466;52.166;5.004;2022-12-16T01:07:00;5.43;;;2.17;;
71383;SDS011;61466;52.166;5.004;2022-12-16T01:09:25;3.60;;;2.15;;
71383;SDS011;61466;52.166;5.004;2022-12-16T01:11:51;2.22;;;1.60;;
71383;SDS011;61466;52.166;5.004;2022-12-16T01:14:16;1.90;;;1.50;;
71383;SDS011;61466;52.166;5.004;2022-12-16T01:16:41;2.03;;;1.33;;
71383;SDS011;61466;52.166;5.004;2022-12-16T01:19:07;2.63;;;1.58;;
71383;SDS011;61466;52.166;5.004;2022-12-16T01:21:32;1.60;;;1.27;;
71383;SDS011;61466;52.166;5.004;2022-12-16T01:23:57;3.58;;;1.48;;
71383;SDS011;61466;52.166;5.004;2022-12-16T01:26:23;2.67;;;1.27;;
71383;SDS011;61466;52.166;5.004;2022-12-16T01:28:48;2.25;;;1.70;;
71383;SDS011;61466;52.166;5.004;2022-12-16T01:31:14;2.75;;;1.40;;
71383;SDS011;61466;52.166;5.004;2022-12-16T01:33:41;1.50;;;0.98;;
71383;SDS011;61466;52.166;5.004;2022-12-16T01:36:07;2.83;;;1.35;;
71383;SDS011;61466;52.166;5.004;2022-12-16T01:38:33;2.47;;;1.35;;
71383;SDS011;61466;52.166;5.004;2022-12-16T01:40:59;3.38;;;1.15;;
71383;SDS011;61466;52.166;5.004;2022-12-16T01:43:27;1.85;;;1.10;;
71383;SDS011;61466;52.166;5.004;2022-12-16T01:45:56;6.55;;;1.70;;
71383;SDS011;61466;52.166;5.004;2022-12-16T01:51:01;8.27;;;1.60;;
71383;SDS011;61466;52.166;5.004;2022-12-16T01:53:30;2.28;;;1.50;;
71383;SDS011;61466;52.166;5.004;2022-12-16T01:55:56;4.47;;;1.45;;
71383;SDS011;61466;52.166;5.004;2022-12-16T01:58:25;4.00;;;1.40;;
71383;SDS011;61466;52.166;5.004;2022-12-16T02:00:53;6.88;;;1.92;;
71383;SDS011;61466;52.166;5.004;2022-12-16T02:03:19;3.55;;;1.67;;
71383;SDS011;61466;52.166;5.004;2022-12-16T02:05:44;2.97;;;1.35;;
71383;SDS011;61466;52.166;5.004;2022-12-16T02:08:12;6.70;;;2.95;;
71383;SDS011;61466;52.166;5.004;2022-12-16T02:15:53;5.88;;;1.80;;
71383;SDS011;61466;52.166;5.004;2022-12-16T02:35:30;3.50;;;1.80;;
71383;SDS011;61466;52.166;5.004;2022-12-16T02:41:06;3.35;;;1.98;;
71383;SDS011;61466;52.166;5.004;2022-12-16T02:43:52;4.95;;;2.03;;
71383;SDS011;61466;52.166;5.004;2022-12-16T02:46:26;4.45;;;2.05;;
71383;SDS011;61466;52.166;5.004;2022-12-16T02:48:54;7.05;;;3.20;;
71383;SDS011;61466;52.166;5.004;2022-12-16T02:51:20;3.00;;;1.58;;
71383;SDS011;61466;52.166;5.004;2022-12-16T02:53:48;4.65;;;2.55;;
71383;SDS011;61466;52.166;5.004;2022-12-16T03:02:26;6.15;;;2.75;;
71383;SDS011;61466;52.166;5.004;2022-12-16T03:04:53;4.88;;;2.05;;
71383;SDS011;61466;52.166;5.004;2022-12-16T03:07:26;4.35;;;1.88;;
71383;SDS011;61466;52.166;5.004;2022-12-16T03:09:56;3.78;;;1.90;;
71383;SDS011;61466;52.166;5.004;2022-12-16T03:12:23;6.18;;;2.70;;
71383;SDS011;61466;52.166;5.004;2022-12-16T03:14:50;6.45;;;1.77;;
71383;SDS011;61466;52.166;5.004;2022-12-16T03:17:18;2.65;;;1.45;;
71383;SDS011;61466;52.166;5.004;2022-12-16T03:20:00;4.35;;;2.13;;
71383;SDS011;61466;52.166;5.004;2022-12-16T03:22:33;13.98;;;2.20;;
71383;SDS011;61466;52.166;5.004;2022-12-16T03:25:02;2.40;;;1.27;;
71383;SDS011;61466;52.166;5.004;2022-12-16T03:27:39;4.65;;;2.15;;
71383;SDS011;61466;52.166;5.004;2022-12-16T03:30:15;1.92;;;1.55;;
71383;SDS011;61466;52.166;5.004;2022-12-16T03:38:08;3.33;;;1.50;;
71383;SDS011;61466;52.166;5.004;2022-12-16T03:40:35;3.95;;;1.67;;
71383;SDS011;61466;52.166;5.004;2022-12-16T03:43:03;3.90;;;1.60;;
71383;SDS011;61466;52.166;5.004;2022-12-16T03:45:40;2.20;;;1.10;;
71383;SDS011;61466;52.166;5.004;2022-12-16T03:48:09;2.47;;;1.75;;
71383;SDS011;61466;52.166;5.004;2022-12-16T03:50:36;3.08;;;1.52;;
71383;SDS011;61466;52.166;5.004;2022-12-16T03:53:02;2.22;;;1.00;;
71383;SDS011;61466;52.166;5.004;2022-12-16T03:55:28;1.88;;;1.23;;
71383;SDS011;61466;52.166;5.004;2022-12-16T03:57:53;3.53;;;1.38;;
71383;SDS011;61466;52.166;5.004;2022-12-16T04:00:19;2.00;;;1.30;;
71383;SDS011;61466;52.166;5.004;2022-12-16T04:02:45;2.38;;;1.35;;
71383;SDS011;61466;52.166;5.004;2022-12-16T04:05:11;1.88;;;1.27;;
71383;SDS011;61466;52.166;5.004;2022-12-16T04:07:37;4.15;;;1.52;;
71383;SDS011;61466;52.166;5.004;2022-12-16T04:10:02;3.00;;;1.55;;
71383;SDS011;61466;52.166;5.004;2022-12-16T04:12:28;1.80;;;1.58;;
71383;SDS011;61466;52.166;5.004;2022-12-16T04:15:12;3.42;;;1.60;;
71383;SDS011;61466;52.166;5.004;2022-12-16T04:17:44;2.85;;;1.17;;
71383;SDS011;61466;52.166;5.004;2022-12-16T04:20:29;1.38;;;1.08;;
71383;SDS011;61466;52.166;5.004;2022-12-16T04:23:16;2.22;;;1.30;;
71383;SDS011;61466;52.166;5.004;2022-12-16T04:26:02;1.92;;;1.13;;
71383;SDS011;61466;52.166;5.004;2022-12-16T04:28:28;2.25;;;1.25;;
71383;SDS011;61466;52.166;5.004;2022-12-16T04:30:53;6.25;;;1.60;;
71383;SDS011;61466;52.166;5.004;2022-12-16T04:33:19;2.63;;;1.33;;
71383;SDS011;61466;52.166;5.004;2022-12-16T04:36:03;2.33;;;1.10;;
71383;SDS011;61466;52.166;5.004;2022-12-16T04:38:47;2.80;;;1.00;;
71383;SDS011;61466;52.166;5.004;2022-12-16T04:41:31;1.75;;;1.00;;
71383;SDS011;61466;52.166;5.004;2022-12-16T04:44:15;3.00;;;0.95;;
71383;SDS011;61466;52.166;5.004;2022-12-16T04:46:58;4.50;;;1.00;;
71383;SDS011;61466;52.166;5.004;2022-12-16T04:49:42;2.78;;;1.38;;
71383;SDS011;61466;52.166;5.004;2022-12-16T04:52:26;2.17;;;1.58;;
71383;SDS011;61466;52.166;5.004;2022-12-16T04:55:10;0.98;;;0.90;;
71383;SDS011;61466;52.166;5.004;2022-12-16T05:00:42;5.72;;;1.27;;
71383;SDS011;61466;52.166;5.004;2022-12-16T05:03:29;4.35;;;1.35;;
71383;SDS011;61466;52.166;5.004;2022-12-16T05:06:21;1.35;;;1.02;;
71383;SDS011;61466;52.166;5.004;2022-12-16T05:09:05;1.40;;;0.80;;
71383;SDS011;61466;52.166;5.004;2022-12-16T05:11:49;1.52;;;1.38;;
71383;SDS011;61466;52.166;5.004;2022-12-16T05:14:33;2.63;;;1.05;;
71383;SDS011;61466;52.166;5.004;2022-12-16T05:17:18;0.65;;;0.60;;
71383;SDS011;61466;52.166;5.004;2022-12-16T05:22:47;1.17;;;1.05;;
71383;SDS011;61466;52.166;5.004;2022-12-16T05:25:31;1.25;;;1.13;;
71383;SDS011;61466;52.166;5.004;2022-12-16T05:28:15;1.23;;;0.82;;
71383;SDS011;61466;52.166;5.004;2022-12-16T05:31:01;1.42;;;1.20;;
71383;SDS011;61466;52.166;5.004;2022-12-16T05:33:45;2.33;;;1.40;;
71383;SDS011;61466;52.166;5.004;2022-12-16T05:36:29;2.60;;;1.17;;
71383;SDS011;61466;52.166;5.004;2022-12-16T05:39:13;1.15;;;0.82;;
71383;SDS011;61466;52.166;5.004;2022-12-16T05:41:57;7.65;;;1.13;;
71383;SDS011;61466;52.166;5.004;2022-12-16T05:44:41;1.77;;;1.35;;
71383;SDS011;61466;52.166;5.004;2022-12-16T05:47:25;7.05;;;1.38;;
71383;SDS011;61466;52.166;5.004;2022-12-16T05:50:10;1.50;;;1.38;;
71383;SDS011;61466;52.166;5.004;2022-12-16T05:52:55;4.22;;;1.15;;
71383;SDS011;61466;52.166;5.004;2022-12-16T05:55:39;3.13;;;1.52;;
71383;SDS011;61466;52.166;5.004;2022-12-16T05:58:24;3.30;;;1.27;;
71383;SDS011;61466;52.166;5.004;2022-12-16T06:01:08;4.90;;;1.13;;
71383;SDS011;61466;52.166;5.004;2022-12-16T06:06:37;9.27;;;2.05;;
71383;SDS011;61466;52.166;5.004;2022-12-16T06:09:21;2.20;;;1.85;;
71383;SDS011;61466;52.166;5.004;2022-12-16T06:12:12;4.60;;;1.23;;
71383;SDS011;61466;52.166;5.004;2022-12-16T06:14:56;3.15;;;1.05;;
71383;SDS011;61466;52.166;5.004;2022-12-16T06:17:46;2.05;;;1.23;;
71383;SDS011;61466;52.166;5.004;2022-12-16T06:20:31;2.30;;;1.35;;
71383;SDS011;61466;52.166;5.004;2022-12-16T06:23:15;2.05;;;1.35;;
71383;SDS011;61466;52.166;5.004;2022-12-16T06:25:59;3.22;;;1.10;;
71383;SDS011;61466;52.166;5.004;2022-12-16T06:28:43;3.50;;;1.17;;
71383;SDS011;61466;52.166;5.004;2022-12-16T06:31:27;1.30;;;1.02;;
71383;SDS011;61466;52.166;5.004;2022-12-16T06:34:11;3.45;;;1.77;;
71383;SDS011;61466;52.166;5.004;2022-12-16T06:36:55;4.55;;;1.35;;
71383;SDS011;61466;52.166;5.004;2022-12-16T06:39:39;1.95;;;1.33;;
71383;SDS011;61466;52.166;5.004;2022-12-16T06:42:23;1.25;;;0.73;;
71383;SDS011;61466;52.166;5.004;2022-12-16T06:45:07;3.00;;;2.13;;
71383;SDS011;61466;52.166;5.004;2022-12-16T06:47:51;2.10;;;1.90;;
71383;SDS011;61466;52.166;5.004;2022-12-16T06:50:35;2.83;;;1.35;;
71383;SDS011;61466;52.166;5.004;2022-12-16T06:56:04;1.73;;;1.00;;
71383;SDS011;61466;52.166;5.004;2022-12-16T06:58:48;2.67;;;1.40;;
71383;SDS011;61466;52.166;5.004;2022-12-16T07:01:32;4.93;;;1.42;;
71383;SDS011;61466;52.166;5.004;2022-12-16T07:04:16;2.13;;;1.70;;
71383;SDS011;61466;52.166;5.004;2022-12-16T07:07:00;3.53;;;1.50;;
71383;SDS011;61466;52.166;5.004;2022-12-16T07:09:44;2.78;;;1.52;;
71383;SDS011;61466;52.166;5.004;2022-12-16T07:12:31;1.67;;;1.42;;
71383;SDS011;61466;52.166;5.004;2022-12-16T07:15:15;4.97;;;2.30;;
71383;SDS011;61466;52.166;5.004;2022-12-16T07:17:59;1.52;;;1.40;;
71383;SDS011;61466;52.166;5.004;2022-12-16T07:20:43;4.15;;;1.75;;
71383;SDS011;61466;52.166;5.004;2022-12-16T07:23:27;1.13;;;1.05;;
71383;SDS011;61466;52.166;5.004;2022-12-16T07:26:11;0.98;;;0.85;;
71383;SDS011;61466;52.166;5.004;2022-12-16T07:28:55;1.20;;;1.10;;
71383;SDS011;61466;52.166;5.004;2022-12-16T07:31:52;2.47;;;1.45;;
71383;SDS011;61466;52.166;5.004;2022-12-16T07:34:36;2.00;;;1.27;;
71383;SDS011;61466;52.166;5.004;2022-12-16T07:37:20;3.00;;;1.58;;
71383;SDS011;61466;52.166;5.004;2022-12-16T07:40:04;5.72;;;1.98;;
71383;SDS011;61466;52.166;5.004;2022-12-16T07:42:48;3.97;;;2.22;;
71383;SDS011;61466;52.166;5.004;2022-12-16T07:45:32;2.35;;;2.08;;
71383;SDS011;61466;52.166;5.004;2022-12-16T07:48:16;2.03;;;1.30;;
71383;SDS011;61466;52.166;5.004;2022-12-16T07:51:00;2.50;;;1.38;;
71383;SDS011;61466;52.166;5.004;2022-12-16T07:53:44;4.22;;;1.35;;
71383;SDS011;61466;52.166;5.004;2022-12-16T07:56:29;1.95;;;1.42;;
71383;SDS011;61466;52.166;5.004;2022-12-16T07:59:13;2.13;;;1.35;;
71383;SDS011;61466;52.166;5.004;2022-12-16T08:01:57;3.08;;;1.77;;
71383;SDS011;61466;52.166;5.004;2022-12-16T08:04:41;2.28;;;0.93;;
71383;SDS011;61466;52.166;5.004;2022-12-16T08:07:25;4.63;;;1.65;;
71383;SDS011;61466;52.166;5.004;2022-12-16T08:10:09;2.42;;;1.60;;
71383;SDS011;61466;52.166;5.004;2022-12-16T08:12:59;3.17;;;1.67;;
71383;SDS011;61466;52.166;5.004;2022-12-16T08:15:44;1.90;;;1.30;;
71383;SDS011;61466;52.166;5.004;2022-12-16T08:21:12;4.10;;;1.38;;
71383;SDS011;61466;52.166;5.004;2022-12-16T08:23:56;1.95;;;1.20;;
71383;SDS011;61466;52.166;5.004;2022-12-16T08:26:40;2.65;;;1.95;;
71383;SDS011;61466;52.166;5.004;2022-12-16T08:29:24;5.20;;;1.20;;
71383;SDS011;61466;52.166;5.004;2022-12-16T08:32:08;2.75;;;1.48;;
71383;SDS011;61466;52.166;5.004;2022-12-16T08:34:52;5.20;;;2.30;;
71383;SDS011;61466;52.166;5.004;2022-12-16T08:37:36;11.55;;;2.05;;
71383;SDS011;61466;52.166;5.004;2022-12-16T08:40:24;5.15;;;1.88;;
71383;SDS011;61466;52.166;5.004;2022-12-16T08:43:08;1.77;;;1.50;;
71383;SDS011;61466;52.166;5.004;2022-12-16T08:45:52;2.47;;;2.00;;
71383;SDS011;61466;52.166;5.004;2022-12-16T08:48:37;8.48;;;3.35;;
71383;SDS011;61466;52.166;5.004;2022-12-16T08:51:21;15.05;;;3.58;;
71383;SDS011;61466;52.166;5.004;2022-12-16T08:56:49;10.43;;;2.80;;
71383;SDS011;61466;52.166;5.004;2022-12-16T08:59:33;6.60;;;2.03;;
71383;SDS011;61466;52.166;5.004;2022-12-16T09:02:17;6.80;;;3.00;;
71383;SDS011;61466;52.166;5.004;2022-12-16T09:05:01;3.00;;;2.40;;
71383;SDS011;61466;52.166;5.004;2022-12-16T09:07:45;6.82;;;2.53;;
71383;SDS011;61466;52.166;5.004;2022-12-16T09:10:29;3.88;;;1.88;;
71383;SDS011;61466;52.166;5.004;2022-12-16T09:13:14;4.25;;;1.75;;
71383;SDS011;61466;52.166;5.004;2022-12-16T09:15:59;3.63;;;1.70;;
71383;SDS011;61466;52.166;5.004;2022-12-16T09:21:27;3.70;;;1.88;;
71383;SDS011;61466;52.166;5.004;2022-12-16T09:24:11;2.03;;;1.20;;
71383;SDS011;61466;52.166;5.004;2022-12-16T09:26:55;3.22;;;1.73;;
71383;SDS011;61466;52.166;5.004;2022-12-16T09:29:39;5.32;;;1.83;;
71383;SDS011;61466;52.166;5.004;2022-12-16T09:32:23;6.97;;;1.67;;
71383;SDS011;61466;52.166;5.004;2022-12-16T09:37:51;5.50;;;1.23;;
71383;SDS011;61466;52.166;5.004;2022-12-16T09:40:39;8.10;;;1.77;;
71383;SDS011;61466;52.166;5.004;2022-12-16T09:43:41;2.15;;;1.02;;
71383;SDS011;61466;52.166;5.004;2022-12-16T09:49:31;2.42;;;1.25;;
71383;SDS011;61466;52.166;5.004;2022-12-16T09:52:26;4.00;;;1.58;;
71383;SDS011;61466;52.166;5.004;2022-12-16T09:55:28;3.72;;;1.95;;
71383;SDS011;61466;52.166;5.004;2022-12-16T09:58:15;2.25;;;1.55;;
71383;SDS011;61466;52.166;5.004;2022-12-16T10:01:03;1.52;;;1.33;;
71383;SDS011;61466;52.166;5.004;2022-12-16T10:03:47;2.47;;;1.60;;
71383;SDS011;61466;52.166;5.004;2022-12-16T10:16:00;3.67;;;2.05;;
71383;SDS011;61466;52.166;5.004;2022-12-16T10:24:59;2.05;;;1.15;;
71383;SDS011;61466;52.166;5.004;2022-12-16T10:27:52;2.55;;;1.70;;
71383;SDS011;61466;52.166;5.004;2022-12-16T10:30:42;3.05;;;1.70;;
71383;SDS011;61466;52.166;5.004;2022-12-16T10:33:26;2.33;;;1.55;;
71383;SDS011;61466;52.166;5.004;2022-12-16T10:36:16;3.10;;;1.90;;
71383;SDS011;61466;52.166;5.004;2022-12-16T10:39:13;2.13;;;1.30;;
71383;SDS011;61466;52.166;5.004;2022-12-16T10:42:05;3.45;;;2.55;;
71383;SDS011;61466;52.166;5.004;2022-12-16T10:45:03;2.60;;;1.80;;
71383;SDS011;61466;52.166;5.004;2022-12-16T10:47:49;1.88;;;1.58;;
71383;SDS011;61466;52.166;5.004;2022-12-16T10:50:33;3.15;;;1.77;;
71383;SDS011;61466;52.166;5.004;2022-12-16T10:53:18;5.82;;;2.65;;
71383;SDS011;61466;52.166;5.004;2022-12-16T10:59:23;3.65;;;1.88;;
71383;SDS011;61466;52.166;5.004;2022-12-16T11:02:18;4.70;;;2.45;;
71383;SDS011;61466;52.166;5.004;2022-12-16T11:05:20;2.95;;;1.98;;
71383;SDS011;61466;52.166;5.004;2022-12-16T11:08:27;3.63;;;2.15;;
71383;SDS011;61466;52.166;5.004;2022-12-16T11:11:23;5.18;;;2.60;;
71383;SDS011;61466;52.166;5.004;2022-12-16T11:14:25;7.05;;;2.90;;
71383;SDS011;61466;52.166;5.004;2022-12-16T11:17:16;4.30;;;2.17;;
71383;SDS011;61466;52.166;5.004;2022-12-16T11:20:09;3.90;;;1.92;;
71383;SDS011;61466;52.166;5.004;2022-12-16T11:23:38;4.05;;;1.55;;
71383;SDS011;61466;52.166;5.004;2022-12-16T11:29:05;5.60;;;2.17;;
71383;SDS011;61466;52.166;5.004;2022-12-16T11:31:56;6.68;;;2.17;;
71383;SDS011;61466;52.166;5.004;2022-12-16T11:34:44;4.50;;;2.60;;
71383;SDS011;61466;52.166;5.004;2022-12-16T11:37:33;4.78;;;2.65;;
71383;SDS011;61466;52.166;5.004;2022-12-16T11:40:18;6.22;;;2.80;;
71383;SDS011;61466;52.166;5.004;2022-12-16T11:43:02;6.07;;;3.13;;
71383;SDS011;61466;52.166;5.004;2022-12-16T11:45:49;2.92;;;2.25;;
71383;SDS011;61466;52.166;5.004;2022-12-16T11:48:37;5.82;;;2.55;;
71383;SDS011;61466;52.166;5.004;2022-12-16T11:51:27;5.70;;;3.22;;
71383;SDS011;61466;52.166;5.004;2022-12-16T11:54:21;4.65;;;2.85;;
71383;SDS011;61466;52.166;5.004;2022-12-16T11:57:16;7.63;;;3.95;;
71383;SDS011;61466;52.166;5.004;2022-12-16T12:00:00;7.95;;;3.65;;
71383;SDS011;61466;52.166;5.004;2022-12-16T12:06:21;6.68;;;3.08;;
71383;SDS011;61466;52.166;5.004;2022-12-16T12:09:24;9.50;;;3.50;;
71383;SDS011;61466;52.166;5.004;2022-12-16T12:15:28;4.95;;;3.10;;
71383;SDS011;61466;52.166;5.004;2022-12-16T12:21:29;7.78;;;4.07;;
71383;SDS011;61466;52.166;5.004;2022-12-16T12:25:06;7.70;;;3.92;;
71383;SDS011;61466;52.166;5.004;2022-12-16T12:27:46;6.28;;;3.25;;
71383;SDS011;61466;52.166;5.004;2022-12-16T12:30:42;6.10;;;3.08;;
71383;SDS011;61466;52.166;5.004;2022-12-16T12:34:18;9.77;;;4.20;;
71383;SDS011;61466;52.166;5.004;2022-12-16T12:46:36;7.53;;;4.20;;
71383;SDS011;61466;52.166;5.004;2022-12-16T12:49:34;10.23;;;4.65;;
71383;SDS011;61466;52.166;5.004;2022-12-16T12:52:28;7.80;;;5.15;;
71383;SDS011;61466;52.166;5.004;2022-12-16T12:55:42;7.68;;;4.28;;
71383;SDS011;61466;52.166;5.004;2022-12-16T12:58:31;6.38;;;3.35;;
71383;SDS011;61466;52.166;5.004;2022-12-16T13:01:19;10.35;;;4.72;;
71383;SDS011;61466;52.166;5.004;2022-12-16T13:04:10;8.65;;;4.88;;
71383;SDS011;61466;52.166;5.004;2022-12-16T13:06:58;12.55;;;4.97;;
71383;SDS011;61466;52.166;5.004;2022-12-16T13:09:43;10.93;;;5.30;;
71383;SDS011;61466;52.166;5.004;2022-12-16T13:12:29;9.52;;;6.05;;
71383;SDS011;61466;52.166;5.004;2022-12-16T13:20:45;16.25;;;5.75;;
71383;SDS011;61466;52.166;5.004;2022-12-16T13:23:38;8.68;;;5.88;;
71383;SDS011;61466;52.166;5.004;2022-12-16T13:26:25;13.63;;;5.85;;
71383;SDS011;61466;52.166;5.004;2022-12-16T13:35:03;6.03;;;4.50;;
71383;SDS011;61466;52.166;5.004;2022-12-16T13:42:29;11.70;;;5.38;;
71383;SDS011;61466;52.166;5.004;2022-12-16T13:47:33;9.35;;;4.75;;
71383;SDS011;61466;52.166;5.004;2022-12-16T13:53:22;12.25;;;5.70;;
71383;SDS011;61466;52.166;5.004;2022-12-16T13:56:10;10.93;;;5.15;;
71383;SDS011;61466;52.166;5.004;2022-12-16T13:58:59;10.90;;;5.18;;
71383;SDS011;61466;52.166;5.004;2022-12-16T14:01:52;12.48;;;6.32;;
71383;SDS011;61466;52.166;5.004;2022-12-16T14:04:41;7.88;;;5.00;;
71383;SDS011;61466;52.166;5.004;2022-12-16T14:07:32;12.25;;;6.22;;
71383;SDS011;61466;52.166;5.004;2022-12-16T14:10:22;11.30;;;6.20;;
71383;SDS011;61466;52.166;5.004;2022-12-16T14:13:14;10.23;;;4.47;;
71383;SDS011;61466;52.166;5.004;2022-12-16T14:16:17;14.50;;;6.18;;
71383;SDS011;61466;52.166;5.004;2022-12-16T14:25:45;8.75;;;4.53;;
71383;SDS011;61466;52.166;5.004;2022-12-16T14:28:36;14.63;;;7.00;;
71383;SDS011;61466;52.166;5.004;2022-12-16T14:31:29;10.52;;;5.15;;
71383;SDS011;61466;52.166;5.004;2022-12-16T14:37:21;8.05;;;4.43;;
71383;SDS011;61466;52.166;5.004;2022-12-16T14:40:30;11.15;;;5.47;;
71383;SDS011;61466;52.166;5.004;2022-12-16T14:43:16;12.45;;;4.90;;
71383;SDS011;61466;52.166;5.004;2022-12-16T14:46:03;10.23;;;5.22;;
71383;SDS011;61466;52.166;5.004;2022-12-16T14:48:48;9.07;;;4.38;;
71383;SDS011;61466;52.166;5.004;2022-12-16T14:51:34;6.82;;;3.95;;
71383;SDS011;61466;52.166;5.004;2022-12-16T14:54:35;11.32;;;3.72;;
71383;SDS011;61466;52.166;5.004;2022-12-16T14:57:30;7.03;;;3.35;;
71383;SDS011;61466;52.166;5.004;2022-12-16T15:00:16;7.35;;;4.13;;
71383;SDS011;61466;52.166;5.004;2022-12-16T15:06:11;6.50;;;3.17;;
71383;SDS011;61466;52.166;5.004;2022-12-16T15:09:01;5.82;;;3.13;;
71383;SDS011;61466;52.166;5.004;2022-12-16T15:11:47;6.57;;;3.92;;
71383;SDS011;61466;52.166;5.004;2022-12-16T15:14:35;6.90;;;3.40;;
71383;SDS011;61466;52.166;5.004;2022-12-16T15:17:22;6.45;;;3.50;;
71383;SDS011;61466;52.166;5.004;2022-12-16T15:20:14;5.03;;;3.08;;
71383;SDS011;61466;52.166;5.004;2022-12-16T15:23:03;9.18;;;3.53;;
71383;SDS011;61466;52.166;5.004;2022-12-16T15:25:53;9.40;;;3.92;;
71383;SDS011;61466;52.166;5.004;2022-12-16T15:28:41;6.35;;;3.13;;
71383;SDS011;61466;52.166;5.004;2022-12-16T15:31:31;4.63;;;3.08;;
71383;SDS011;61466;52.166;5.004;2022-12-16T15:34:22;5.03;;;3.15;;
71383;SDS011;61466;52.166;5.004;2022-12-16T15:37:22;10.07;;;3.65;;
71383;SDS011;61466;52.166;5.004;2022-12-16T15:40:22;4.35;;;3.08;;
71383;SDS011;61466;52.166;5.004;2022-12-16T15:43:28;7.07;;;3.42;;
71383;SDS011;61466;52.166;5.004;2022-12-16T15:46:17;6.68;;;3.60;;
71383;SDS011;61466;52.166;5.004;2022-12-16T15:58:36;4.78;;;2.70;;
71383;SDS011;61466;52.166;5.004;2022-12-16T16:01:20;9.73;;;3.72;;
71383;SDS011;61466;52.166;5.004;2022-12-16T16:04:17;6.82;;;3.38;;
71383;SDS011;61466;52.166;5.004;2022-12-16T16:07:07;5.03;;;3.28;;
71383;SDS011;61466;52.166;5.004;2022-12-16T16:10:19;5.15;;;3.10;;
71383;SDS011;61466;52.166;5.004;2022-12-16T16:13:04;4.53;;;2.78;;
71383;SDS011;61466;52.166;5.004;2022-12-16T16:15:49;4.03;;;2.78;;
71383;SDS011;61466;52.166;5.004;2022-12-16T16:18:33;6.97;;;3.25;;
71383;SDS011;61466;52.166;5.004;2022-12-16T16:21:17;9.77;;;4.80;;
71383;SDS011;61466;52.166;5.004;2022-12-16T16:24:01;8.07;;;4.47;;
71383;SDS011;61466;52.166;5.004;2022-12-16T16:26:45;9.27;;;4.38;;
71383;SDS011;61466;52.166;5.004;2022-12-16T16:29:29;7.43;;;4.50;;
71383;SDS011;61466;52.166;5.004;2022-12-16T16:32:13;10.88;;;5.63;;
71383;SDS011;61466;52.166;5.004;2022-12-16T16:34:57;7.30;;;4.55;;
71383;SDS011;61466;52.166;5.004;2022-12-16T16:37:41;8.13;;;4.82;;
71383;SDS011;61466;52.166;5.004;2022-12-16T16:40:33;6.03;;;4.88;;
71383;SDS011;61466;52.166;5.004;2022-12-16T16:43:23;5.88;;;4.40;;
71383;SDS011;61466;52.166;5.004;2022-12-16T16:49:23;7.15;;;4.30;;
71383;SDS011;61466;52.166;5.004;2022-12-16T16:52:14;11.25;;;4.43;;
71383;SDS011;61466;52.166;5.004;2022-12-16T16:54:59;11.07;;;5.45;;
71383;SDS011;61466;52.166;5.004;2022-12-16T16:57:44;8.50;;;4.95;;
71383;SDS011;61466;52.166;5.004;2022-12-16T17:00:28;9.52;;;5.22;;
71383;SDS011;61466;52.166;5.004;2022-12-16T17:03:12;6.78;;;4.22;;
71383;SDS011;61466;52.166;5.004;2022-12-16T17:05:56;9.43;;;4.70;;
71383;SDS011;61466;52.166;5.004;2022-12-16T17:08:40;7.15;;;2.90;;
71383;SDS011;61466;52.166;5.004;2022-12-16T17:11:24;4.50;;;3.33;;
71383;SDS011;61466;52.166;5.004;2022-12-16T17:14:10;6.53;;;3.63;;
71383;SDS011;61466;52.166;5.004;2022-12-16T17:16:59;9.85;;;3.40;;
71383;SDS011;61466;52.166;5.004;2022-12-16T17:22:27;5.50;;;4.20;;
71383;SDS011;61466;52.166;5.004;2022-12-16T17:25:11;5.22;;;3.88;;
71383;SDS011;61466;52.166;5.004;2022-12-16T17:30:39;6.03;;;2.58;;
71383;SDS011;61466;52.166;5.004;2022-12-16T17:33:24;4.80;;;2.65;;
71383;SDS011;61466;52.166;5.004;2022-12-16T17:36:09;5.30;;;2.70;;
71383;SDS011;61466;52.166;5.004;2022-12-16T17:38:54;6.38;;;2.78;;
71383;SDS011;61466;52.166;5.004;2022-12-16T17:41:38;4.07;;;3.33;;
71383;SDS011;61466;52.166;5.004;2022-12-16T17:44:22;5.35;;;3.28;;
71383;SDS011;61466;52.166;5.004;2022-12-16T17:47:06;8.98;;;2.92;;
71383;SDS011;61466;52.166;5.004;2022-12-16T17:49:50;11.27;;;4.10;;
71383;SDS011;61466;52.166;5.004;2022-12-16T17:52:34;6.15;;;4.28;;
71383;SDS011;61466;52.166;5.004;2022-12-16T17:55:18;4.72;;;3.25;;
71383;SDS011;61466;52.166;5.004;2022-12-16T17:58:02;6.43;;;3.92;;
71383;SDS011;61466;52.166;5.004;2022-12-16T18:00:46;9.95;;;3.95;;
71383;SDS011;61466;52.166;5.004;2022-12-16T18:03:40;9.93;;;3.85;;
71383;SDS011;61466;52.166;5.004;2022-12-16T18:06:24;6.88;;;4.03;;
71383;SDS011;61466;52.166;5.004;2022-12-16T18:09:08;4.75;;;3.50;;
71383;SDS011;61466;52.166;5.004;2022-12-16T18:11:52;8.50;;;3.55;;
71383;SDS011;61466;52.166;5.004;2022-12-16T18:14:36;7.13;;;3.92;;
71383;SDS011;61466;52.166;5.004;2022-12-16T18:17:20;6.65;;;4.93;;
71383;SDS011;61466;52.166;5.004;2022-12-16T18:20:04;5.93;;;3.83;;
71383;SDS011;61466;52.166;5.004;2022-12-16T18:25:34;12.80;;;4.63;;
71383;SDS011;61466;52.166;5.004;2022-12-16T18:28:18;8.57;;;4.35;;
71383;SDS011;61466;52.166;5.004;2022-12-16T18:31:03;13.10;;;5.47;;
71383;SDS011;61466;52.166;5.004;2022-12-16T18:33:48;9.57;;;4.50;;
71383;SDS011;61466;52.166;5.004;2022-12-16T18:36:32;9.90;;;5.18;;
71383;SDS011;61466;52.166;5.004;2022-12-16T18:39:16;8.88;;;4.05;;
71383;SDS011;61466;52.166;5.004;2022-12-16T18:42:00;8.93;;;4.78;;
71383;SDS011;61466;52.166;5.004;2022-12-16T18:44:44;12.82;;;3.97;;
71383;SDS011;61466;52.166;5.004;2022-12-16T18:47:28;8.38;;;5.32;;
71383;SDS011;61466;52.166;5.004;2022-12-16T18:50:12;7.00;;;5.00;;
71383;SDS011;61466;52.166;5.004;2022-12-16T18:52:56;9.07;;;4.75;;
71383;SDS011;61466;52.166;5.004;2022-12-16T18:55:39;6.13;;;4.10;;
71383;SDS011;61466;52.166;5.004;2022-12-16T18:58:24;9.68;;;4.55;;
71383;SDS011;61466;52.166;5.004;2022-12-16T19:01:08;6.78;;;4.75;;